sensor_id;sensor_type;location;lat;lon;timestamp;P1;durP1;ratioP1;P2;durP2;ratioP2
5827;SDS011;42583;50.240;8.444;2022-09-13T02:13:34;4.25;;;1.50;;
5827;SDS011;42583;50.240;8.444;2022-09-13T02:28:39;2.10;;;1.70;;
5827;SDS011;42583;50.240;8.444;2022-09-13T02:43:45;2.33;;;1.50;;
5827;SDS011;42583;50.240;8.444;2022-09-13T03:14:14;2.28;;;1.40;;
5827;SDS011;42583;50.240;8.444;2022-09-13T03:29:23;2.40;;;1.40;;
5827;SDS011;42583;50.240;8.444;2022-09-13T03:44:33;1.92;;;1.23;;
5827;SDS011;42583;50.240;8.444;2022-09-13T03:59:38;4.03;;;1.25;;
5827;SDS011;42583;50.240;8.444;2022-09-13T04:14:44;1.45;;;1.10;;
5827;SDS011;42583;50.240;8.444;2022-09-13T04:29:48;1.80;;;1.08;;
5827;SDS011;42583;50.240;8.444;2022-09-13T04:44:54;1.85;;;1.05;;
5827;SDS011;42583;50.240;8.444;2022-09-13T04:59:54;2.00;;;1.00;;
5827;SDS011;42583;50.240;8.444;2022-09-13T05:14:55;2.03;;;1.10;;
5827;SDS011;42583;50.240;8.444;2022-09-13T05:29:56;1.52;;;1.00;;
5827;SDS011;42583;50.240;8.444;2022-09-13T05:44:56;2.00;;;1.10;;
5827;SDS011;42583;50.240;8.444;2022-09-13T05:59:57;2.65;;;1.10;;
5827;SDS011;42583;50.240;8.444;2022-09-13T06:14:57;2.33;;;0.90;;
5827;SDS011;42583;50.240;8.444;2022-09-13T06:29:58;1.95;;;1.35;;
5827;SDS011;42583;50.240;8.444;2022-09-13T06:44:58;1.88;;;1.20;;
5827;SDS011;42583;50.240;8.444;2022-09-13T06:59:59;3.00;;;1.00;;
5827;SDS011;42583;50.240;8.444;2022-09-13T07:15:00;1.92;;;0.95;;
5827;SDS011;42583;50.240;8.444;2022-09-13T07:30:01;1.92;;;0.73;;
5827;SDS011;42583;50.240;8.444;2022-09-13T07:45:01;1.38;;;0.80;;
5827;SDS011;42583;50.240;8.444;2022-09-13T08:00:02;3.15;;;0.75;;
5827;SDS011;42583;50.240;8.444;2022-09-13T08:15:04;1.92;;;0.70;;
5827;SDS011;42583;50.240;8.444;2022-09-13T08:30:05;0.77;;;0.73;;
5827;SDS011;42583;50.240;8.444;2022-09-13T08:45:06;0.77;;;0.70;;
5827;SDS011;42583;50.240;8.444;2022-09-13T09:00:17;0.82;;;0.70;;
5827;SDS011;42583;50.240;8.444;2022-09-13T09:15:29;5.22;;;1.10;;
5827;SDS011;42583;50.240;8.444;2022-09-13T09:30:36;2.30;;;1.10;;
5827;SDS011;42583;50.240;8.444;2022-09-13T09:45:53;3.05;;;1.00;;
5827;SDS011;42583;50.240;8.444;2022-09-13T10:00:58;1.65;;;0.73;;
5827;SDS011;42583;50.240;8.444;2022-09-13T10:16:33;2.63;;;0.60;;
5827;SDS011;42583;50.240;8.444;2022-09-13T10:31:29;2.40;;;0.57;;
5827;SDS011;42583;50.240;8.444;2022-09-13T12:03:29;1.45;;;0.60;;
5827;SDS011;42583;50.240;8.444;2022-09-13T12:18:58;1.52;;;0.68;;
5827;SDS011;42583;50.240;8.444;2022-09-13T12:34:07;1.38;;;0.70;;
5827;SDS011;42583;50.240;8.444;2022-09-13T13:04:34;1.90;;;0.57;;
5827;SDS011;42583;50.240;8.444;2022-09-13T13:19:36;1.70;;;0.70;;
5827;SDS011;42583;50.240;8.444;2022-09-13T13:49:42;5.75;;;0.90;;
5827;SDS011;42583;50.240;8.444;2022-09-13T14:20:16;0.90;;;0.80;;
5827;SDS011;42583;50.240;8.444;2022-09-13T14:35:27;4.25;;;0.90;;
5827;SDS011;42583;50.240;8.444;2022-09-13T14:50:32;4.43;;;0.90;;
5827;SDS011;42583;50.240;8.444;2022-09-13T15:05:35;2.92;;;0.80;;
5827;SDS011;42583;50.240;8.444;2022-09-13T15:20:50;3.17;;;0.65;;
5827;SDS011;42583;50.240;8.444;2022-09-13T15:51:17;1.08;;;0.60;;
5827;SDS011;42583;50.240;8.444;2022-09-13T16:06:18;4.25;;;0.80;;
